createdAt,value
2022-08-04T00:02:18.885Z,2.17
2022-08-04T00:04:53.331Z,2.10
2022-08-04T00:07:44.002Z,2.28
2022-08-04T00:10:16.399Z,2.10
2022-08-04T00:12:48.357Z,2.22
2022-08-04T00:15:17.012Z,2.10
2022-08-04T00:18:08.271Z,2.38
2022-08-04T00:20:40.895Z,2.40
2022-08-04T00:23:09.333Z,1.92
2022-08-04T00:25:44.636Z,2.47
2022-08-04T00:28:12.953Z,2.47
2022-08-04T00:30:42.465Z,2.55
2022-08-04T00:33:09.664Z,2.35
2022-08-04T00:35:38.372Z,2.13
2022-08-04T00:38:05.698Z,2.30
2022-08-04T00:41:01.734Z,2.28
2022-08-04T00:43:48.732Z,2.00
2022-08-04T00:46:18.245Z,2.10
2022-08-04T00:49:01.643Z,2.05
2022-08-04T00:52:31.736Z,2.35
2022-08-04T00:54:52.899Z,2.10
2022-08-04T00:57:33.897Z,2.80
2022-08-04T01:00:14.977Z,2.03
2022-08-04T01:03:00.464Z,2.50
2022-08-04T01:05:27.318Z,2.30
2022-08-04T01:08:18.018Z,2.20
2022-08-04T01:11:21.326Z,2.00
2022-08-04T01:13:48.070Z,2.10
2022-08-04T01:16:17.497Z,2.58
2022-08-04T01:19:01.842Z,2.65
2022-08-04T01:21:43.744Z,2.22
2022-08-04T01:25:00.013Z,2.33
2022-08-04T01:28:06.638Z,2.40
2022-08-04T01:30:37.740Z,2.50
2022-08-04T01:33:09.236Z,2.45
2022-08-04T01:35:47.380Z,2.20
2022-08-04T01:38:33.987Z,2.55
2022-08-04T01:41:05.031Z,2.13
2022-08-04T01:43:34.307Z,2.35
2022-08-04T01:46:03.524Z,2.35
2022-08-04T01:48:31.174Z,2.22
2022-08-04T01:51:05.429Z,2.20
2022-08-04T01:53:38.378Z,2.85
2022-08-04T01:56:09.832Z,2.30
2022-08-04T01:58:38.235Z,2.20
2022-08-04T02:01:10.582Z,2.30
2022-08-04T02:06:49.910Z,2.75
2022-08-04T02:09:33.299Z,2.30
2022-08-04T02:12:15.886Z,2.45
2022-08-04T02:14:56.530Z,2.40
2022-08-04T02:17:31.842Z,3.05
2022-08-04T02:20:07.422Z,2.58
2022-08-04T02:22:39.715Z,2.35
2022-08-04T02:25:11.882Z,2.50
2022-08-04T02:28:00.160Z,2.58
2022-08-04T02:31:07.020Z,2.75
2022-08-04T02:33:41.795Z,2.33
2022-08-04T02:36:11.063Z,2.70
2022-08-04T02:39:02.173Z,2.40
2022-08-04T02:41:30.540Z,2.10
2022-08-04T02:44:09.013Z,2.33
2022-08-04T02:46:37.935Z,2.22
2022-08-04T02:49:07.918Z,2.28
2022-08-04T02:51:36.839Z,2.60
2022-08-04T02:54:05.343Z,2.33
2022-08-04T02:56:33.996Z,2.55
2022-08-04T02:59:03.736Z,2.50
2022-08-04T03:01:31.025Z,2.50
2022-08-04T03:04:12.899Z,2.28
2022-08-04T03:07:24.974Z,2.22
2022-08-04T03:10:10.819Z,2.60
2022-08-04T03:12:58.816Z,2.58
2022-08-04T03:15:55.082Z,3.08
2022-08-04T03:18:56.084Z,2.45
2022-08-04T03:21:55.542Z,2.45
2022-08-04T03:24:37.280Z,2.75
2022-08-04T03:27:12.050Z,3.20
2022-08-04T03:29:47.974Z,2.78
2022-08-04T03:32:43.215Z,2.55
2022-08-04T03:35:22.545Z,2.47
2022-08-04T03:38:11.191Z,2.70
2022-08-04T03:41:10.121Z,2.50
2022-08-04T03:44:00.023Z,2.47
2022-08-04T03:47:04.316Z,2.28
2022-08-04T03:49:49.180Z,2.58
2022-08-04T03:52:56.343Z,2.50
2022-08-04T03:55:41.853Z,3.10
2022-08-04T03:58:08.590Z,2.85
2022-08-04T04:01:12.055Z,2.67
2022-08-04T04:04:17.811Z,2.45
2022-08-04T04:07:36.298Z,2.60
2022-08-04T04:10:15.385Z,2.70
2022-08-04T04:13:24.713Z,2.58
2022-08-04T04:16:17.607Z,2.67
2022-08-04T04:19:02.881Z,2.60
2022-08-04T04:21:57.257Z,2.60
2022-08-04T04:24:55.008Z,2.47
2022-08-04T04:27:51.112Z,2.63
2022-08-04T04:30:29.305Z,2.38
2022-08-04T04:33:38.413Z,2.92
2022-08-04T04:36:24.264Z,3.03
2022-08-04T04:39:09.608Z,2.72
2022-08-04T04:41:52.884Z,3.03
2022-08-04T04:44:41.730Z,3.22
2022-08-04T04:48:07.292Z,3.47
2022-08-04T04:50:28.528Z,2.70
2022-08-04T04:53:39.778Z,2.72
2022-08-04T04:56:16.499Z,2.60
2022-08-04T04:58:43.740Z,2.80
2022-08-04T05:01:41.200Z,3.35
2022-08-04T05:04:26.799Z,2.97
2022-08-04T05:07:29.391Z,2.95
2022-08-04T05:10:23.483Z,3.22
2022-08-04T05:14:36.883Z,2.85
2022-08-04T05:15:56.138Z,3.30
2022-08-04T05:18:26.976Z,3.03
2022-08-04T05:21:05.287Z,3.60
2022-08-04T05:23:36.444Z,3.22
2022-08-04T05:26:11.427Z,3.22
2022-08-04T05:28:51.957Z,3.55
2022-08-04T05:31:38.046Z,3.30
2022-08-04T05:34:09.513Z,3.45
2022-08-04T05:36:43.276Z,3.37
2022-08-04T05:39:20.069Z,3.50
2022-08-04T05:41:55.136Z,3.17
2022-08-04T05:44:27.088Z,3.28
2022-08-04T05:46:57.468Z,2.58
2022-08-04T05:49:26.076Z,3.70
2022-08-04T05:51:55.974Z,3.20
2022-08-04T05:54:24.439Z,3.50
2022-08-04T05:56:53.247Z,3.70
2022-08-04T05:59:20.630Z,3.65
2022-08-04T06:01:54.927Z,3.28
2022-08-04T06:04:32.321Z,3.40
2022-08-04T06:06:59.431Z,4.03
2022-08-04T06:09:26.631Z,3.42
2022-08-04T06:12:03.970Z,3.97
2022-08-04T06:14:41.729Z,4.18
2022-08-04T06:18:33.262Z,3.80
2022-08-04T06:20:17.702Z,3.50
2022-08-04T06:22:50.574Z,3.58
2022-08-04T06:25:22.637Z,3.20
2022-08-04T06:27:50.652Z,3.60
2022-08-04T06:30:19.433Z,3.55
2022-08-04T06:32:48.840Z,3.35
2022-08-04T06:35:19.679Z,3.90
2022-08-04T06:37:47.775Z,2.90
2022-08-04T06:40:31.146Z,3.20
2022-08-04T06:43:02.304Z,3.17
2022-08-04T06:45:30.145Z,3.45
2022-08-04T06:47:58.378Z,2.63
2022-08-04T06:51:29.474Z,3.00
2022-08-04T06:53:13.426Z,3.35
2022-08-04T06:55:46.103Z,2.72
2022-08-04T06:58:14.145Z,2.65
2022-08-04T07:00:43.367Z,3.25
2022-08-04T07:03:11.520Z,3.50
2022-08-04T07:05:39.981Z,3.00
2022-08-04T07:08:09.715Z,2.60
2022-08-04T07:10:38.573Z,2.40
2022-08-04T07:13:07.333Z,2.42
2022-08-04T07:15:35.836Z,2.10
2022-08-04T07:18:04.778Z,2.35
2022-08-04T07:20:34.537Z,2.50
2022-08-04T07:23:02.130Z,2.15
2022-08-04T07:26:00.108Z,2.17
2022-08-04T07:28:16.307Z,2.20
2022-08-04T07:30:45.098Z,2.15
2022-08-04T07:33:12.232Z,1.92
2022-08-04T07:36:09.270Z,1.85
2022-08-04T07:38:27.815Z,2.63
2022-08-04T07:40:55.574Z,2.03
2022-08-04T07:43:23.374Z,2.17
2022-08-04T07:45:50.555Z,2.22
2022-08-04T07:48:18.958Z,2.40
2022-08-04T07:50:46.846Z,2.10
2022-08-04T07:53:54.909Z,2.08
2022-08-04T07:56:02.708Z,1.90
2022-08-04T07:58:30.329Z,2.05
2022-08-04T08:00:58.172Z,1.75
2022-08-04T08:03:26.653Z,2.05
2022-08-04T08:06:17.787Z,2.42
2022-08-04T08:08:40.716Z,1.73
2022-08-04T08:11:09.348Z,2.10
2022-08-04T08:13:37.500Z,1.92
2022-08-04T08:16:05.268Z,1.77
2022-08-04T08:18:32.343Z,1.92
2022-08-04T08:20:59.483Z,2.20
2022-08-04T08:23:27.142Z,2.22
2022-08-04T08:25:54.025Z,1.90
2022-08-04T08:28:21.008Z,1.92
2022-08-04T08:30:52.608Z,2.20
2022-08-04T08:33:21.240Z,2.10
2022-08-04T08:35:54.920Z,1.88
2022-08-04T08:38:37.892Z,2.20
2022-08-04T08:41:38.786Z,2.03
2022-08-04T08:44:37.380Z,2.10
2022-08-04T08:47:14.280Z,1.90
2022-08-04T08:50:04.102Z,2.22
2022-08-04T08:52:56.270Z,2.00
2022-08-04T08:55:50.274Z,1.60
2022-08-04T08:58:35.769Z,1.52
2022-08-04T09:01:15.783Z,1.60
2022-08-04T09:03:45.487Z,2.13
2022-08-04T09:06:46.088Z,1.88
2022-08-04T09:09:22.045Z,1.30
2022-08-04T09:11:52.360Z,1.50
2022-08-04T09:14:28.922Z,1.92
2022-08-04T09:17:03.092Z,1.60
2022-08-04T09:19:42.341Z,1.20
2022-08-04T09:22:19.857Z,1.50
2022-08-04T09:25:17.971Z,1.30
2022-08-04T09:27:51.982Z,1.33
2022-08-04T09:30:21.851Z,1.25
2022-08-04T09:33:18.189Z,1.40
2022-08-04T09:36:04.665Z,1.58
2022-08-04T09:39:07.015Z,1.30
2022-08-04T09:44:51.225Z,1.50
2022-08-04T09:47:59.640Z,1.73
2022-08-04T09:50:35.786Z,1.63
2022-08-04T09:53:45.156Z,2.95
2022-08-04T09:56:25.290Z,1.60
2022-08-04T09:59:30.735Z,1.67
2022-08-04T10:02:03.359Z,1.40
2022-08-04T10:04:32.961Z,1.33
2022-08-04T10:07:29.009Z,1.50
2022-08-04T10:10:23.028Z,1.48
2022-08-04T10:12:55.843Z,1.40
2022-08-04T10:15:45.489Z,1.50
2022-08-04T10:18:32.684Z,1.50
2022-08-04T10:21:31.755Z,1.58
2022-08-04T10:24:31.682Z,1.63
2022-08-04T10:27:07.686Z,1.65
2022-08-04T10:29:41.192Z,1.73
2022-08-04T10:32:26.371Z,2.10
2022-08-04T10:35:13.163Z,1.60
2022-08-04T10:37:59.182Z,1.60
2022-08-04T10:40:43.123Z,1.40
2022-08-04T10:43:20.988Z,1.45
2022-08-04T10:45:57.764Z,1.40
2022-08-04T10:48:37.271Z,1.30
2022-08-04T10:53:55.333Z,1.35
2022-08-04T10:56:31.864Z,1.30
2022-08-04T10:59:03.619Z,1.27
2022-08-04T11:04:38.891Z,1.08
2022-08-04T11:07:06.409Z,1.42
2022-08-04T11:09:34.353Z,1.17
2022-08-04T11:12:12.239Z,1.10
2022-08-04T11:14:55.005Z,0.90
2022-08-04T11:17:45.125Z,1.50
2022-08-04T11:23:09.193Z,1.15
2022-08-04T11:25:40.224Z,1.05
2022-08-04T11:28:34.760Z,1.10
2022-08-04T11:31:21.244Z,1.27
2022-08-04T11:33:59.073Z,1.02
2022-08-04T11:36:36.502Z,1.17
2022-08-04T11:39:20.722Z,1.30
2022-08-04T11:41:53.467Z,1.17
2022-08-04T11:44:37.610Z,1.35
2022-08-04T11:47:11.325Z,1.20
2022-08-04T11:49:56.895Z,1.02
2022-08-04T11:52:28.541Z,0.85
2022-08-04T11:54:57.125Z,0.90
2022-08-04T11:57:35.379Z,0.80
2022-08-04T12:00:12.774Z,1.10
2022-08-04T12:02:39.965Z,1.20
2022-08-04T12:05:09.325Z,1.10
2022-08-04T12:08:08.566Z,1.17
2022-08-04T12:11:02.428Z,1.02
2022-08-04T12:13:32.361Z,1.08
2022-08-04T12:16:20.585Z,1.02
2022-08-04T12:18:53.342Z,1.00
2022-08-04T12:21:33.818Z,1.05
2022-08-04T12:24:20.168Z,1.20
2022-08-04T12:26:56.967Z,1.00
2022-08-04T12:29:27.551Z,1.00
2022-08-04T12:32:00.627Z,1.00
2022-08-04T12:34:34.653Z,1.00
2022-08-04T12:37:23.767Z,1.23
2022-08-04T12:40:28.718Z,1.30
2022-08-04T12:42:59.831Z,0.90
2022-08-04T12:45:27.477Z,1.20
2022-08-04T12:47:58.459Z,1.00
2022-08-04T12:50:26.165Z,1.30
2022-08-04T12:53:04.341Z,1.20
2022-08-04T12:55:35.195Z,1.23
2022-08-04T12:58:11.662Z,0.80
2022-08-04T13:00:41.805Z,1.13
2022-08-04T13:03:15.600Z,1.10
2022-08-04T13:05:43.951Z,1.10
2022-08-04T13:08:12.604Z,0.93
2022-08-04T13:10:48.100Z,2.20
2022-08-04T13:13:21.258Z,1.10
2022-08-04T13:16:03.789Z,1.20
2022-08-04T13:18:33.539Z,1.00
2022-08-04T13:21:19.645Z,1.02
2022-08-04T13:24:19.121Z,1.10
2022-08-04T13:26:55.998Z,1.10
2022-08-04T13:29:59.524Z,1.10
2022-08-04T13:32:20.489Z,1.00
2022-08-04T13:34:52.373Z,0.90
2022-08-04T13:37:23.637Z,0.88
2022-08-04T13:39:55.274Z,1.00
2022-08-04T13:42:24.097Z,1.13
2022-08-04T13:44:57.903Z,1.08
2022-08-04T13:47:31.481Z,1.05
2022-08-04T13:50:27.666Z,0.98
2022-08-04T13:52:57.679Z,1.10
2022-08-04T13:55:35.766Z,1.00
2022-08-04T13:58:08.956Z,1.00
2022-08-04T14:00:47.568Z,1.10
2022-08-04T14:03:24.423Z,1.02
2022-08-04T14:06:18.787Z,0.90
2022-08-04T14:08:51.117Z,1.17
2022-08-04T14:12:06.595Z,1.20
2022-08-04T14:14:25.440Z,1.25
2022-08-04T14:17:07.825Z,1.23
2022-08-04T14:19:47.813Z,1.10
2022-08-04T14:22:27.025Z,1.10
2022-08-04T14:25:06.561Z,1.02
2022-08-04T14:27:51.192Z,1.10
2022-08-04T14:30:36.685Z,1.00
2022-08-04T14:34:01.918Z,1.00
2022-08-04T14:36:03.961Z,1.02
2022-08-04T14:38:53.800Z,1.20
2022-08-04T14:41:31.532Z,1.00
2022-08-04T14:44:01.457Z,1.00
2022-08-04T14:46:37.032Z,1.20
2022-08-04T14:49:13.512Z,1.00
2022-08-04T14:52:06.733Z,1.08
2022-08-04T14:54:35.491Z,1.15
2022-08-04T14:57:05.328Z,1.35
2022-08-04T14:59:41.830Z,1.10
2022-08-04T15:02:29.941Z,1.20
2022-08-04T15:04:59.206Z,1.00
2022-08-04T15:07:46.153Z,1.15
2022-08-04T15:10:13.474Z,1.30
2022-08-04T15:12:40.708Z,1.10
2022-08-04T15:15:34.066Z,0.90
2022-08-04T15:17:55.456Z,0.90
2022-08-04T15:20:23.310Z,1.15
2022-08-04T15:22:50.200Z,0.95
2022-08-04T15:25:17.720Z,0.85
2022-08-04T15:27:48.890Z,0.95
2022-08-04T15:30:18.176Z,0.90
2022-08-04T15:32:52.001Z,1.00
2022-08-04T15:35:30.829Z,1.17
2022-08-04T15:38:05.470Z,1.10
2022-08-04T15:40:38.591Z,0.95
2022-08-04T15:43:26.928Z,1.10
2022-08-04T15:46:30.774Z,1.10
2022-08-04T15:48:42.714Z,1.00
2022-08-04T15:51:14.401Z,1.17
2022-08-04T15:54:02.631Z,1.20
2022-08-04T15:56:29.793Z,1.05
2022-08-04T15:58:57.197Z,1.63
2022-08-04T16:01:25.110Z,1.35
2022-08-04T16:04:00.883Z,1.90
2022-08-04T16:06:29.515Z,5.90
2022-08-04T16:09:01.245Z,2.08
2022-08-04T16:11:32.898Z,1.77
2022-08-04T16:16:51.183Z,1.98
2022-08-04T16:19:20.749Z,1.88
2022-08-04T16:21:55.343Z,1.70
2022-08-04T16:24:29.699Z,1.70
2022-08-04T16:26:58.199Z,2.15
2022-08-04T16:29:38.332Z,1.95
2022-08-04T16:32:05.257Z,1.60
2022-08-04T16:34:48.594Z,1.52
2022-08-04T16:37:18.925Z,1.70
2022-08-04T16:39:50.049Z,2.03
2022-08-04T16:42:32.898Z,1.55
2022-08-04T16:45:13.345Z,1.58
2022-08-04T16:47:49.026Z,1.73
2022-08-04T16:50:23.102Z,1.35
2022-08-04T16:52:51.826Z,1.33
2022-08-04T16:55:20.549Z,1.38
2022-08-04T16:57:52.348Z,1.20
2022-08-04T17:00:32.595Z,1.10
2022-08-04T17:03:05.697Z,1.20
2022-08-04T17:05:38.820Z,1.13
2022-08-04T17:08:29.048Z,1.10
2022-08-04T17:10:55.128Z,1.30
2022-08-04T17:14:00.952Z,1.10
2022-08-04T17:16:25.329Z,1.02
2022-08-04T17:18:53.897Z,1.45
2022-08-04T17:21:30.275Z,1.13
2022-08-04T17:24:16.206Z,1.08
2022-08-04T17:26:54.102Z,1.10
2022-08-04T17:29:43.379Z,0.80
2022-08-04T17:32:20.921Z,1.30
2022-08-04T17:34:54.334Z,0.90
2022-08-04T17:37:51.916Z,1.20
2022-08-04T17:40:22.885Z,1.13
2022-08-04T17:46:29.288Z,0.95
2022-08-04T17:49:21.954Z,0.93
2022-08-04T17:52:05.705Z,1.75
2022-08-04T17:57:25.839Z,1.20
2022-08-04T17:59:57.830Z,1.20
2022-08-04T18:02:33.540Z,1.40
2022-08-04T18:05:06.956Z,1.02
2022-08-04T18:08:35.009Z,1.23
2022-08-04T18:10:52.674Z,1.15
2022-08-04T18:13:27.781Z,1.48
2022-08-04T18:16:04.904Z,1.35
2022-08-04T18:18:32.081Z,1.10
2022-08-04T18:21:03.188Z,1.55
2022-08-04T18:23:32.805Z,1.20
2022-08-04T18:26:02.058Z,1.20
2022-08-04T18:28:30.711Z,1.10
2022-08-04T18:31:00.220Z,1.30
2022-08-04T18:33:40.574Z,1.30
2022-08-04T18:36:33.426Z,1.17
2022-08-04T18:39:15.079Z,1.17
2022-08-04T18:42:00.960Z,1.05
2022-08-04T18:44:53.234Z,1.20
2022-08-04T18:47:23.123Z,1.10
2022-08-04T18:50:40.262Z,1.27
2022-08-04T18:52:55.702Z,1.27
2022-08-04T18:55:55.648Z,1.13
2022-08-04T18:58:12.846Z,1.20
2022-08-04T19:06:04.159Z,1.42
2022-08-04T19:08:42.016Z,1.25
2022-08-04T19:11:29.286Z,1.55
2022-08-04T19:13:58.473Z,1.40
2022-08-04T19:16:30.800Z,1.23
2022-08-04T19:19:00.271Z,1.85
2022-08-04T19:22:01.264Z,1.30
2022-08-04T19:24:32.434Z,1.38
2022-08-04T19:29:52.974Z,1.48
2022-08-04T19:32:20.963Z,1.50
2022-08-04T19:34:48.562Z,1.35
2022-08-04T19:37:56.915Z,1.73
2022-08-04T19:40:09.635Z,1.48
2022-08-04T19:42:37.435Z,1.25
2022-08-04T19:45:05.078Z,1.30
2022-08-04T19:48:18.297Z,1.20
2022-08-04T19:50:20.111Z,1.90
2022-08-04T19:55:38.385Z,1.83
2022-08-04T19:58:08.538Z,1.67
2022-08-04T20:00:37.501Z,1.42
2022-08-04T20:03:11.615Z,1.58
2022-08-04T20:05:54.352Z,1.73
2022-08-04T20:08:32.018Z,2.20
2022-08-04T20:11:00.059Z,1.90
2022-08-04T20:13:33.840Z,1.60
2022-08-04T20:16:29.759Z,1.55
2022-08-04T20:19:00.990Z,1.60
2022-08-04T20:24:38.753Z,1.55
2022-08-04T20:27:25.334Z,1.50
2022-08-04T20:29:56.519Z,1.65
2022-08-04T20:32:25.468Z,2.05
2022-08-04T20:34:54.374Z,1.45
2022-08-04T20:37:25.631Z,2.30
2022-08-04T20:40:12.393Z,1.48
2022-08-04T20:42:40.472Z,1.52
2022-08-04T20:45:16.321Z,1.70
2022-08-04T20:47:45.980Z,1.98
2022-08-04T20:50:28.356Z,1.33
2022-08-04T20:52:58.050Z,1.70
2022-08-04T20:55:25.535Z,1.95
2022-08-04T21:00:43.661Z,1.50
2022-08-04T21:03:10.567Z,1.80
2022-08-04T21:05:37.887Z,2.25
2022-08-04T21:08:04.959Z,2.40
2022-08-04T21:10:31.973Z,2.40
2022-08-04T21:12:58.840Z,2.20
2022-08-04T21:15:58.057Z,2.58
2022-08-04T21:18:14.453Z,2.30
2022-08-04T21:20:43.798Z,2.13
2022-08-04T21:23:10.691Z,1.90
2022-08-04T21:25:43.681Z,2.20
2022-08-04T21:28:11.136Z,2.10
2022-08-04T21:30:52.797Z,1.98
2022-08-04T21:33:22.966Z,2.03
2022-08-04T21:35:54.273Z,2.22
2022-08-04T21:38:28.280Z,2.15
2022-08-04T21:40:57.763Z,2.42
2022-08-04T21:43:27.354Z,2.10
2022-08-04T21:45:55.952Z,2.10
2022-08-04T21:48:23.835Z,2.08
2022-08-04T21:50:54.311Z,2.08
2022-08-04T21:53:22.113Z,2.33
2022-08-04T21:56:05.429Z,2.15
2022-08-04T21:58:35.127Z,2.38
2022-08-04T22:01:05.838Z,2.10
2022-08-04T22:03:52.851Z,2.42
2022-08-04T22:06:28.404Z,2.17
2022-08-04T22:08:56.413Z,2.80
2022-08-04T22:11:43.788Z,2.05
2022-08-04T22:14:16.586Z,2.10
2022-08-04T22:16:45.194Z,2.05
2022-08-04T22:19:13.657Z,2.35
2022-08-04T22:21:45.206Z,2.08
2022-08-04T22:24:13.903Z,2.47
2022-08-04T22:26:41.381Z,2.20
2022-08-04T22:29:14.463Z,2.47
2022-08-04T22:31:53.181Z,2.65
2022-08-04T22:34:25.002Z,2.28
2022-08-04T22:36:53.542Z,2.60
2022-08-04T22:39:23.517Z,2.30
2022-08-04T22:42:03.915Z,2.55
2022-08-04T22:44:33.566Z,2.15
2022-08-04T22:47:01.324Z,2.20
2022-08-04T22:49:31.702Z,2.55
2022-08-04T22:51:59.106Z,2.42
2022-08-04T22:54:29.652Z,2.30
2022-08-04T22:56:58.546Z,2.00
2022-08-04T22:59:26.813Z,1.90
2022-08-04T23:01:59.061Z,2.60
2022-08-04T23:04:27.044Z,2.30
2022-08-04T23:06:54.787Z,2.28
2022-08-04T23:09:22.286Z,2.03
2022-08-04T23:12:24.522Z,2.00
2022-08-04T23:14:52.541Z,2.20
2022-08-04T23:17:19.338Z,2.30
2022-08-04T23:19:57.962Z,2.35
2022-08-04T23:22:41.413Z,2.22
2022-08-04T23:25:15.463Z,2.00
2022-08-04T23:27:50.952Z,2.17
2022-08-04T23:30:24.761Z,2.25
2022-08-04T23:32:56.401Z,2.33
2022-08-04T23:35:23.988Z,2.67
2022-08-04T23:37:56.984Z,2.50
2022-08-04T23:40:32.772Z,2.60
2022-08-04T23:43:12.328Z,2.30
2022-08-04T23:46:03.949Z,2.53
2022-08-04T23:48:39.399Z,2.70
2022-08-04T23:51:14.260Z,2.60
2022-08-04T23:54:03.429Z,2.88
2022-08-04T23:56:35.550Z,2.33
2022-08-04T23:59:04.922Z,2.78
